Indiaroba, Brazil
Current Conditions -  °F | °C
As of 5:00 PM on Monday 26 Jan 2015 (Local Time) from SBAR Reporting Station
Clear Clear  
Wind Chill: 82°   Ceiling: Unl
Heat Index: 86°   Visibility: 6mi
Dew Point: 70°   Wind: 15mph
Humidity: 66%   Direction: 130°SE
Pressure: 29.91"   Gusts: NA
Location:  11.52°S, 37.51°W
Report Text: SBAR 262000Z 13013KT CAVOK 28/21 Q1013
Loading
Personal Weather Stations






























Interactive Weather Map New forecast layout! Learn more

10-Day Weather Forecast

Advertisements
Track Severe Weather on mobile